createdAt,value
2017-11-19T00:01:13.392Z,7.10
2017-11-19T00:03:42.357Z,7.10
2017-11-19T00:06:10.647Z,7.20
2017-11-19T00:08:38.875Z,7.20
2017-11-19T00:11:07.256Z,7.10
2017-11-19T00:13:35.591Z,7.10
2017-11-19T00:16:03.951Z,7.10
2017-11-19T00:18:32.195Z,7.00
2017-11-19T00:21:00.507Z,7.00
2017-11-19T00:23:28.773Z,7.10
2017-11-19T00:25:57.164Z,7.10
2017-11-19T00:28:29.607Z,7.00
2017-11-19T00:30:57.844Z,6.90
2017-11-19T00:33:26.295Z,6.90
2017-11-19T00:35:54.687Z,6.80
2017-11-19T00:38:23.065Z,6.70
2017-11-19T00:40:51.423Z,6.70
2017-11-19T00:43:19.885Z,6.60
2017-11-19T00:45:48.212Z,6.60
2017-11-19T00:48:18.248Z,6.60
2017-11-19T00:50:46.507Z,6.70
2017-11-19T00:53:14.744Z,6.60
2017-11-19T00:55:42.991Z,6.60
2017-11-19T00:58:12.256Z,6.50
2017-11-19T01:00:40.491Z,6.50
2017-11-19T01:03:08.738Z,6.50
2017-11-19T01:05:38.023Z,6.40
2017-11-19T01:08:07.044Z,6.50
2017-11-19T01:10:35.291Z,6.50
2017-11-19T01:13:03.576Z,6.50
2017-11-19T01:15:31.804Z,6.50
2017-11-19T01:18:00.205Z,6.60
2017-11-19T01:20:28.505Z,6.60
2017-11-19T01:22:56.964Z,6.40
2017-11-19T01:25:25.340Z,6.50
2017-11-19T01:27:53.776Z,6.50
2017-11-19T01:30:23.314Z,6.50
2017-11-19T01:32:51.682Z,6.60
2017-11-19T01:35:19.940Z,6.70
2017-11-19T01:37:48.183Z,6.60
2017-11-19T01:40:17.192Z,6.70
2017-11-19T01:42:45.456Z,6.60
2017-11-19T01:45:13.698Z,6.60
2017-11-19T01:47:41.927Z,6.60
2017-11-19T01:50:10.656Z,6.60
2017-11-19T01:52:39.035Z,6.60
2017-11-19T01:55:07.447Z,6.60
2017-11-19T01:57:36.487Z,6.50
2017-11-19T02:00:04.720Z,6.50
2017-11-19T02:02:33.963Z,6.60
2017-11-19T02:05:02.229Z,6.60
2017-11-19T02:07:30.463Z,6.60
2017-11-19T02:09:58.701Z,6.60
2017-11-19T02:12:27.255Z,6.60
2017-11-19T02:14:55.496Z,6.50
2017-11-19T02:17:23.745Z,6.50
2017-11-19T02:19:52.005Z,6.50
2017-11-19T02:22:20.248Z,6.60
2017-11-19T02:24:50.422Z,6.60
2017-11-19T02:27:18.679Z,6.70
2017-11-19T02:29:47.054Z,6.60
2017-11-19T02:32:15.277Z,6.60
2017-11-19T02:34:44.626Z,6.60
2017-11-19T02:37:12.873Z,6.60
2017-11-19T02:39:41.113Z,6.60
2017-11-19T02:42:09.474Z,6.70
2017-11-19T02:44:38.147Z,6.60
2017-11-19T02:47:06.386Z,6.70
2017-11-19T02:49:34.668Z,6.70
2017-11-19T02:52:04.788Z,6.60
2017-11-19T02:54:33.792Z,6.60
2017-11-19T02:57:04.060Z,6.60
2017-11-19T02:59:32.294Z,6.60
2017-11-19T03:02:00.539Z,6.70
2017-11-19T03:04:28.821Z,6.70
2017-11-19T03:06:57.836Z,6.70
2017-11-19T03:09:26.084Z,6.70
2017-11-19T03:11:54.332Z,6.70
2017-11-19T03:14:22.602Z,6.70
2017-11-19T03:16:50.819Z,6.70
2017-11-19T03:19:19.458Z,6.80
2017-11-19T03:21:47.683Z,6.90
2017-11-19T03:24:15.932Z,6.90
2017-11-19T03:26:44.436Z,6.80
2017-11-19T03:29:12.652Z,6.80
2017-11-19T03:31:40.887Z,6.80
2017-11-19T03:34:09.152Z,6.80
2017-11-19T03:36:37.398Z,6.80
2017-11-19T03:39:05.627Z,6.80
2017-11-19T03:41:33.971Z,6.80
2017-11-19T03:44:02.211Z,6.80
2017-11-19T03:46:30.449Z,6.80
2017-11-19T03:48:59.467Z,6.70
2017-11-19T03:51:27.707Z,6.70
2017-11-19T03:53:55.934Z,6.80
2017-11-19T03:56:24.535Z,6.90
2017-11-19T03:58:52.763Z,6.90
2017-11-19T04:01:20.995Z,6.90
2017-11-19T04:03:49.656Z,6.90
2017-11-19T04:06:17.968Z,6.90
2017-11-19T04:08:46.211Z,6.80
2017-11-19T04:11:14.776Z,6.80
2017-11-19T04:13:43.015Z,6.80
2017-11-19T04:16:11.251Z,6.80
2017-11-19T04:18:39.512Z,6.80
2017-11-19T04:21:07.747Z,6.70
2017-11-19T04:23:35.984Z,6.70
2017-11-19T04:26:04.624Z,6.80
2017-11-19T04:28:32.859Z,6.80
2017-11-19T04:31:01.107Z,6.80
2017-11-19T04:33:29.352Z,6.80
2017-11-19T04:35:57.588Z,6.90
2017-11-19T04:38:25.815Z,6.90
2017-11-19T04:40:54.233Z,6.90
2017-11-19T04:43:22.452Z,6.90
2017-11-19T04:45:51.610Z,6.90
2017-11-19T04:48:20.177Z,6.90
2017-11-19T04:50:48.411Z,6.90
2017-11-19T04:53:16.643Z,6.80
2017-11-19T04:55:44.903Z,6.80
2017-11-19T04:58:13.136Z,6.80
2017-11-19T05:00:41.369Z,6.70
2017-11-19T05:03:09.772Z,6.70
2017-11-19T05:05:38.008Z,6.70
2017-11-19T05:08:06.246Z,6.70
2017-11-19T05:10:35.582Z,6.60
2017-11-19T05:13:03.916Z,6.60
2017-11-19T05:15:32.148Z,6.60
2017-11-19T05:18:00.408Z,6.50
2017-11-19T05:20:28.644Z,6.50
2017-11-19T05:22:56.886Z,6.40
2017-11-19T05:25:25.191Z,6.30
2017-11-19T05:27:53.439Z,6.30
2017-11-19T05:30:21.674Z,6.30
2017-11-19T05:32:50.013Z,6.20
2017-11-19T05:35:18.259Z,6.20
2017-11-19T05:37:46.483Z,6.20
2017-11-19T05:40:15.504Z,6.20
2017-11-19T05:42:43.743Z,6.20
2017-11-19T05:45:11.975Z,6.30
2017-11-19T05:47:40.294Z,6.30
2017-11-19T05:50:08.527Z,6.30
2017-11-19T05:52:36.763Z,6.30
2017-11-19T05:55:05.922Z,6.30
2017-11-19T05:57:34.163Z,6.30
2017-11-19T06:00:02.399Z,6.30
2017-11-19T06:02:30.664Z,6.20
2017-11-19T06:04:58.923Z,6.10
2017-11-19T06:07:27.200Z,6.10
2017-11-19T06:09:55.447Z,6.10
2017-11-19T06:12:23.671Z,6.20
2017-11-19T06:14:52.012Z,6.20
2017-11-19T06:17:20.607Z,6.30
2017-11-19T06:19:48.852Z,6.30
2017-11-19T06:22:17.091Z,6.30
2017-11-19T06:24:45.344Z,6.30
2017-11-19T06:27:13.591Z,6.40
2017-11-19T06:29:41.815Z,6.40
2017-11-19T06:32:10.128Z,6.40
2017-11-19T06:34:38.353Z,6.40
2017-11-19T06:37:06.583Z,6.30
2017-11-19T06:39:34.896Z,6.30
2017-11-19T06:42:03.131Z,6.20
2017-11-19T06:44:31.371Z,6.10
2017-11-19T06:46:59.855Z,6.10
2017-11-19T06:49:28.091Z,6.00
2017-11-19T06:51:56.332Z,6.00
2017-11-19T06:54:25.351Z,5.90
2017-11-19T06:56:53.593Z,5.90
2017-11-19T06:59:21.941Z,5.90
2017-11-19T07:01:50.495Z,5.80
2017-11-19T07:04:18.734Z,5.70
2017-11-19T07:06:47.171Z,5.70
2017-11-19T07:09:15.427Z,5.70
2017-11-19T07:11:43.665Z,5.80
2017-11-19T07:14:12.663Z,5.80
2017-11-19T07:16:41.801Z,5.80
2017-11-19T07:19:10.031Z,5.80
2017-11-19T07:21:39.035Z,5.70
2017-11-19T07:24:08.675Z,5.70
2017-11-19T07:26:36.907Z,5.70
2017-11-19T07:29:05.350Z,5.90
2017-11-19T07:31:33.608Z,6.00
2017-11-19T07:34:01.843Z,6.00
2017-11-19T07:36:30.845Z,6.00
2017-11-19T07:38:59.883Z,6.00
2017-11-19T07:41:28.108Z,6.00
2017-11-19T07:43:56.344Z,6.10
2017-11-19T07:46:24.851Z,6.10
2017-11-19T07:48:53.094Z,6.10
2017-11-19T07:51:21.323Z,6.10
2017-11-19T07:53:49.584Z,6.10
2017-11-19T07:56:17.822Z,6.00
2017-11-19T07:58:46.055Z,5.90
2017-11-19T08:01:14.328Z,5.90
2017-11-19T08:03:43.339Z,5.90
2017-11-19T08:06:11.571Z,5.90
2017-11-19T08:08:40.215Z,6.00
2017-11-19T08:11:08.450Z,6.00
2017-11-19T08:13:37.452Z,6.00
2017-11-19T08:16:06.489Z,6.00
2017-11-19T08:18:34.892Z,6.00
2017-11-19T08:21:03.128Z,6.10
2017-11-19T08:23:31.392Z,6.10
2017-11-19T08:25:59.619Z,6.10
2017-11-19T08:28:27.852Z,6.20
2017-11-19T08:30:56.484Z,6.20
2017-11-19T08:33:24.719Z,6.30
2017-11-19T08:35:52.955Z,6.30
2017-11-19T08:38:21.211Z,6.40
2017-11-19T08:40:49.444Z,6.30
2017-11-19T08:43:17.679Z,6.40
2017-11-19T08:45:45.942Z,6.40
2017-11-19T08:48:14.181Z,6.50
2017-11-19T08:50:42.475Z,6.50
2017-11-19T08:53:10.824Z,6.50
2017-11-19T08:55:39.063Z,6.50
2017-11-19T08:58:07.316Z,6.60
2017-11-19T09:00:35.571Z,6.70
2017-11-19T09:03:03.811Z,6.90
2017-11-19T09:05:32.811Z,7.40
2017-11-19T09:08:01.071Z,7.40
2017-11-19T09:10:29.407Z,7.40
2017-11-19T09:12:57.627Z,7.30
2017-11-19T09:15:26.968Z,7.40
2017-11-19T09:17:55.204Z,7.40
2017-11-19T09:20:23.688Z,7.40
2017-11-19T09:22:52.720Z,7.30
2017-11-19T09:25:20.957Z,7.30
2017-11-19T09:27:49.200Z,7.30
2017-11-19T09:30:17.459Z,7.40
2017-11-19T09:32:45.706Z,7.30
2017-11-19T09:35:13.939Z,7.40
2017-11-19T09:37:42.687Z,7.50
2017-11-19T09:40:10.923Z,7.60
2017-11-19T09:42:39.260Z,7.80
2017-11-19T09:45:07.499Z,7.90
2017-11-19T09:47:35.745Z,8.00
2017-11-19T09:50:03.985Z,8.10
2017-11-19T09:52:32.243Z,8.20
2017-11-19T09:55:00.479Z,8.20
2017-11-19T09:57:28.726Z,8.10
2017-11-19T09:59:57.493Z,8.10
2017-11-19T10:02:25.728Z,8.10
2017-11-19T10:04:53.964Z,8.00
2017-11-19T10:07:22.225Z,8.00
2017-11-19T10:09:50.452Z,7.90
2017-11-19T10:12:18.688Z,7.90
2017-11-19T10:14:46.947Z,7.90
2017-11-19T10:17:15.179Z,8.00
2017-11-19T10:19:44.180Z,7.80
2017-11-19T10:22:13.602Z,7.70
2017-11-19T10:24:41.840Z,7.70
2017-11-19T10:27:10.851Z,7.70
2017-11-19T10:29:39.880Z,7.70
2017-11-19T10:32:08.120Z,7.70
2017-11-19T10:34:36.355Z,7.70
2017-11-19T10:37:04.620Z,7.80
2017-11-19T10:39:32.869Z,7.90
2017-11-19T10:42:01.101Z,8.10
2017-11-19T10:44:29.640Z,8.20
2017-11-19T10:46:57.872Z,8.20
2017-11-19T10:49:26.887Z,8.00
2017-11-19T10:51:55.923Z,8.00
2017-11-19T10:54:24.145Z,8.00
2017-11-19T10:56:52.372Z,7.80
2017-11-19T10:59:20.627Z,7.80
2017-11-19T11:01:48.863Z,7.80
2017-11-19T11:04:17.862Z,7.70
2017-11-19T11:06:47.407Z,7.80
2017-11-19T11:09:15.642Z,7.80
2017-11-19T11:11:43.879Z,7.80
2017-11-19T11:14:12.142Z,7.80
2017-11-19T11:16:40.543Z,7.90
2017-11-19T11:19:08.782Z,8.00
2017-11-19T11:21:37.053Z,8.00
2017-11-19T11:24:05.611Z,8.10
2017-11-19T11:26:33.855Z,8.20
2017-11-19T11:29:02.548Z,8.20
2017-11-19T11:31:30.788Z,8.40
2017-11-19T11:33:59.024Z,8.70
2017-11-19T11:36:28.057Z,9.10
2017-11-19T11:38:56.295Z,9.10
2017-11-19T11:41:25.295Z,8.90
2017-11-19T11:43:54.326Z,8.70
2017-11-19T11:46:22.567Z,8.70
2017-11-19T11:48:50.795Z,8.50
2017-11-19T11:51:19.464Z,8.50
2017-11-19T11:53:47.705Z,8.50
2017-11-19T11:56:15.940Z,8.40
2017-11-19T11:58:44.207Z,8.30
2017-11-19T12:01:12.445Z,8.30
2017-11-19T12:03:40.675Z,8.40
2017-11-19T12:06:08.926Z,8.50
2017-11-19T12:08:37.166Z,8.50
2017-11-19T12:11:06.172Z,8.90
2017-11-19T12:13:34.487Z,8.90
2017-11-19T12:16:02.724Z,9.00
2017-11-19T12:18:30.960Z,9.10
2017-11-19T12:20:59.221Z,9.10
2017-11-19T12:23:27.459Z,9.10
2017-11-19T12:25:55.932Z,9.10
2017-11-19T12:28:24.183Z,8.90
2017-11-19T12:30:53.190Z,8.60
2017-11-19T12:33:22.202Z,8.40
2017-11-19T12:35:50.755Z,8.40
2017-11-19T12:38:18.991Z,8.30
2017-11-19T12:40:54.999Z,8.30
2017-11-19T12:43:24.011Z,9.00
2017-11-19T12:45:52.429Z,8.90
2017-11-19T12:48:20.684Z,8.90
2017-11-19T12:50:48.919Z,8.80
2017-11-19T12:53:17.922Z,8.60
2017-11-19T12:55:47.151Z,8.50
2017-11-19T12:58:15.383Z,8.50
2017-11-19T13:00:43.616Z,8.50
2017-11-19T13:03:11.872Z,8.40
2017-11-19T13:05:40.107Z,8.30
2017-11-19T13:08:08.339Z,8.30
2017-11-19T13:10:36.607Z,8.30
2017-11-19T13:13:04.836Z,8.30
2017-11-19T13:15:33.840Z,8.20
2017-11-19T13:18:02.974Z,8.20
2017-11-19T13:20:31.212Z,8.20
2017-11-19T13:23:00.220Z,8.20
2017-11-19T13:25:28.475Z,8.20
2017-11-19T13:27:57.883Z,8.30
2017-11-19T13:30:26.883Z,8.20
2017-11-19T13:32:55.917Z,8.20
2017-11-19T13:35:24.181Z,8.20
2017-11-19T13:37:52.485Z,8.10
2017-11-19T13:40:21.059Z,8.20
2017-11-19T13:42:49.291Z,8.10
2017-11-19T13:45:17.529Z,8.20
2017-11-19T13:47:45.794Z,8.20
2017-11-19T13:50:14.031Z,8.20
2017-11-19T13:52:42.262Z,8.10
2017-11-19T13:55:10.524Z,8.20
2017-11-19T13:57:38.755Z,8.10
2017-11-19T14:00:07.764Z,8.20
2017-11-19T14:02:36.474Z,8.20
2017-11-19T14:05:04.715Z,8.30
2017-11-19T14:07:33.032Z,8.20
2017-11-19T14:10:01.270Z,8.30
2017-11-19T14:12:29.508Z,8.30
2017-11-19T14:14:57.743Z,8.30
2017-11-19T14:17:26.054Z,8.30
2017-11-19T14:19:54.248Z,8.20
2017-11-19T14:22:22.536Z,8.20
2017-11-19T14:24:51.870Z,8.20
2017-11-19T14:27:20.107Z,8.20
2017-11-19T14:29:48.394Z,8.20
2017-11-19T14:32:16.651Z,8.20
2017-11-19T14:34:44.891Z,8.20
2017-11-19T14:37:13.131Z,8.20
2017-11-19T14:39:41.388Z,8.20
2017-11-19T14:42:09.729Z,8.20
2017-11-19T14:44:37.952Z,8.20
2017-11-19T14:47:07.036Z,8.20
2017-11-19T14:49:35.433Z,8.20
2017-11-19T14:52:03.671Z,8.20
2017-11-19T14:54:32.097Z,8.20
2017-11-19T14:57:01.090Z,8.20
2017-11-19T14:59:29.419Z,8.20
2017-11-19T15:01:57.678Z,8.20
2017-11-19T15:04:25.939Z,8.10
2017-11-19T15:06:54.189Z,8.00
2017-11-19T15:09:23.171Z,8.00
2017-11-19T15:11:51.403Z,8.00
2017-11-19T15:14:19.642Z,8.00
2017-11-19T15:16:47.918Z,8.00
2017-11-19T15:19:16.161Z,8.00
2017-11-19T15:21:44.414Z,7.90
2017-11-19T15:24:12.687Z,7.90
2017-11-19T15:26:40.957Z,7.90
2017-11-19T15:29:09.202Z,7.90
2017-11-19T15:31:38.489Z,7.90
2017-11-19T15:34:06.878Z,7.80
2017-11-19T15:36:36.406Z,7.80
2017-11-19T15:39:04.672Z,7.80
2017-11-19T15:44:08.580Z,7.80
2017-11-19T15:46:38.760Z,7.80
2017-11-19T15:49:08.253Z,7.80
2017-11-19T15:51:36.540Z,7.70
2017-11-19T15:54:04.936Z,7.80
2017-11-19T15:56:33.326Z,7.80
2017-11-19T15:59:01.802Z,7.70
2017-11-19T16:01:30.148Z,7.70
2017-11-19T16:03:58.376Z,7.60
2017-11-19T16:06:27.497Z,7.60
2017-11-19T16:08:55.736Z,7.60
2017-11-19T16:11:24.968Z,7.60
2017-11-19T16:13:53.889Z,7.50
2017-11-19T16:16:22.163Z,7.60
2017-11-19T16:18:50.408Z,7.50
2017-11-19T16:21:18.664Z,7.50
2017-11-19T16:23:48.326Z,7.50
2017-11-19T16:26:17.791Z,7.40
2017-11-19T16:28:46.049Z,7.30
2017-11-19T16:31:14.818Z,7.40
2017-11-19T16:33:43.117Z,7.40
2017-11-19T16:36:11.658Z,7.50
2017-11-19T16:38:39.974Z,7.40
2017-11-19T16:41:08.974Z,7.50
2017-11-19T16:43:38.271Z,7.50
2017-11-19T16:46:07.294Z,7.50
2017-11-19T16:48:35.704Z,7.50
2017-11-19T16:51:04.931Z,7.50
2017-11-19T16:53:33.288Z,7.50
2017-11-19T16:56:01.668Z,7.40
2017-11-19T16:58:30.171Z,7.30
2017-11-19T17:00:58.442Z,7.10
2017-11-19T17:03:26.842Z,7.10
2017-11-19T17:05:57.065Z,7.00
2017-11-19T17:08:26.084Z,7.00
2017-11-19T17:10:54.333Z,7.00
2017-11-19T17:13:22.819Z,7.10
2017-11-19T17:15:51.831Z,7.10
2017-11-19T17:18:20.353Z,7.10
2017-11-19T17:20:48.937Z,7.20
2017-11-19T17:23:17.178Z,7.20
2017-11-19T17:25:45.612Z,7.20
2017-11-19T17:28:13.875Z,7.20
2017-11-19T17:30:42.113Z,7.20
2017-11-19T17:33:12.577Z,7.20
2017-11-19T17:35:46.460Z,7.30
2017-11-19T17:38:14.912Z,7.30
2017-11-19T17:40:43.914Z,7.40
2017-11-19T17:43:12.315Z,7.40
2017-11-19T17:45:40.556Z,7.30
2017-11-19T17:48:08.995Z,7.30
2017-11-19T17:50:37.553Z,7.30
2017-11-19T17:53:05.801Z,7.20
2017-11-19T17:55:34.811Z,7.10
2017-11-19T17:58:03.079Z,7.10
2017-11-19T18:00:31.397Z,7.10
2017-11-19T18:02:59.619Z,7.10
2017-11-19T18:05:28.952Z,7.10
2017-11-19T18:07:57.204Z,7.10
2017-11-19T18:10:25.433Z,7.10
2017-11-19T18:12:53.707Z,7.10
2017-11-19T18:15:21.959Z,7.10
2017-11-19T18:17:50.196Z,7.10
2017-11-19T18:20:19.243Z,7.20
2017-11-19T18:22:48.496Z,7.20
2017-11-19T18:25:17.500Z,7.10
2017-11-19T18:27:46.530Z,7.10
2017-11-19T18:30:14.866Z,7.10
2017-11-19T18:32:44.108Z,7.00
2017-11-19T18:35:12.521Z,7.00
2017-11-19T18:37:41.087Z,7.00
2017-11-19T18:40:09.320Z,7.00
2017-11-19T18:42:38.140Z,7.00
2017-11-19T18:45:07.272Z,7.00
2017-11-19T18:47:35.624Z,7.00
2017-11-19T18:50:04.165Z,7.00
2017-11-19T18:52:32.455Z,7.10
2017-11-19T18:55:00.805Z,7.10
2017-11-19T18:57:29.839Z,7.10
2017-11-19T18:59:58.141Z,7.10
2017-11-19T19:02:26.828Z,7.10
2017-11-19T19:04:55.212Z,7.00
2017-11-19T19:07:23.578Z,7.00
2017-11-19T19:09:52.020Z,7.00
2017-11-19T19:12:20.734Z,7.00
2017-11-19T19:14:49.082Z,6.90
2017-11-19T19:17:18.071Z,6.80
2017-11-19T19:19:46.454Z,6.80
2017-11-19T19:22:14.707Z,6.90
2017-11-19T19:24:42.967Z,6.80
2017-11-19T19:27:11.233Z,6.70
2017-11-19T19:29:39.472Z,6.70
2017-11-19T19:32:07.874Z,6.70
2017-11-19T19:34:36.487Z,6.70
2017-11-19T19:37:04.946Z,6.70
2017-11-19T19:39:33.429Z,6.70
2017-11-19T19:42:01.683Z,6.70
2017-11-19T19:44:29.925Z,6.80
2017-11-19T19:46:58.307Z,6.80
2017-11-19T19:49:26.724Z,6.80
2017-11-19T19:51:55.736Z,6.80
2017-11-19T19:54:24.964Z,6.80
2017-11-19T19:56:54.123Z,6.80
2017-11-19T19:59:22.359Z,6.80
2017-11-19T20:01:51.383Z,6.80
2017-11-19T20:04:19.650Z,6.80
2017-11-19T20:06:47.908Z,6.90
2017-11-19T20:09:16.152Z,6.90
2017-11-19T20:11:44.974Z,6.90
2017-11-19T20:14:13.242Z,6.90
2017-11-19T20:16:42.242Z,6.80
2017-11-19T20:19:10.768Z,6.80
2017-11-19T20:21:39.005Z,6.80
2017-11-19T20:24:07.330Z,6.80
2017-11-19T20:26:35.600Z,6.80
2017-11-19T20:29:03.825Z,6.80
2017-11-19T20:31:32.836Z,6.80
2017-11-19T20:34:01.088Z,6.70
2017-11-19T20:36:29.562Z,6.70
2017-11-19T20:38:58.564Z,6.70
2017-11-19T20:41:27.911Z,6.70
2017-11-19T20:43:56.151Z,6.70
2017-11-19T20:46:24.784Z,6.80
2017-11-19T20:48:53.028Z,6.80
2017-11-19T20:51:21.263Z,6.80
2017-11-19T20:53:49.502Z,6.80
2017-11-19T20:56:17.759Z,6.80
2017-11-19T20:58:46.000Z,6.80
2017-11-19T21:01:14.999Z,6.80
2017-11-19T21:03:43.319Z,6.80
2017-11-19T21:06:11.559Z,6.80
2017-11-19T21:08:39.986Z,6.80
2017-11-19T21:11:08.371Z,6.80
2017-11-19T21:13:36.603Z,6.80
2017-11-19T21:16:04.843Z,6.80
2017-11-19T21:18:33.108Z,6.80
2017-11-19T21:21:01.343Z,6.80
2017-11-19T21:23:29.578Z,6.70
2017-11-19T21:25:58.107Z,6.70
2017-11-19T21:28:26.350Z,6.70
2017-11-19T21:30:54.586Z,6.60
2017-11-19T21:33:22.847Z,6.70
2017-11-19T21:35:51.086Z,6.70
2017-11-19T21:38:20.420Z,6.60
2017-11-19T21:40:48.696Z,6.60
2017-11-19T21:43:16.919Z,6.60
2017-11-19T21:45:45.155Z,6.50
2017-11-19T21:48:13.827Z,6.50
2017-11-19T21:50:42.063Z,6.50
2017-11-19T21:53:10.307Z,6.40
2017-11-19T21:55:39.520Z,6.40
2017-11-19T21:58:07.756Z,6.40
2017-11-19T22:00:35.991Z,6.40
2017-11-19T22:03:05.036Z,6.30
2017-11-19T22:05:33.321Z,6.30
2017-11-19T22:08:01.555Z,6.30
2017-11-19T22:10:30.167Z,6.30
2017-11-19T22:12:58.398Z,6.40
2017-11-19T22:15:26.629Z,6.30
2017-11-19T22:17:54.896Z,6.30
2017-11-19T22:20:23.127Z,6.20
2017-11-19T22:22:51.370Z,6.20
2017-11-19T22:25:19.639Z,6.30
2017-11-19T22:27:47.875Z,6.30
2017-11-19T22:30:16.888Z,6.30
2017-11-19T22:32:45.575Z,6.30
2017-11-19T22:35:13.811Z,6.30
2017-11-19T22:37:42.048Z,6.40
2017-11-19T22:40:10.691Z,6.40
2017-11-19T22:42:38.927Z,6.40
2017-11-19T22:45:07.168Z,6.40
2017-11-19T22:47:35.424Z,6.40
2017-11-19T22:50:03.658Z,6.30
2017-11-19T22:52:31.913Z,6.40
2017-11-19T22:55:00.455Z,6.40
2017-11-19T22:57:28.682Z,6.40
2017-11-19T22:59:56.920Z,6.40
2017-11-19T23:02:25.201Z,6.40
2017-11-19T23:04:53.515Z,6.40
2017-11-19T23:07:21.755Z,6.40
2017-11-19T23:09:50.019Z,6.40
2017-11-19T23:12:18.260Z,6.30
2017-11-19T23:14:46.496Z,6.40
2017-11-19T23:17:14.850Z,6.40
2017-11-19T23:19:43.090Z,6.40
2017-11-19T23:22:11.318Z,6.40
2017-11-19T23:24:39.578Z,6.40
2017-11-19T23:27:07.811Z,6.40
2017-11-19T23:29:36.044Z,6.50
2017-11-19T23:32:04.301Z,6.50
2017-11-19T23:34:32.572Z,6.40
2017-11-19T23:37:00.808Z,6.50
2017-11-19T23:39:29.662Z,6.50
2017-11-19T23:41:58.303Z,6.40
2017-11-19T23:44:27.308Z,6.40
2017-11-19T23:46:56.330Z,6.50
2017-11-19T23:49:24.572Z,6.50
2017-11-19T23:51:52.803Z,6.60
2017-11-19T23:54:21.071Z,6.50
2017-11-19T23:56:49.303Z,6.50
2017-11-19T23:59:17.547Z,6.50
